Time;durP1;ratioP1;P1;durP2;ratioP2;P2;SDS_P1;SDS_P2;PMS_P1;PMS_P2;Temp;Humidity;BMP_temperature;BMP_pressure;BME280_temperature;BME280_humidity;BME280_pressure;Samples;Min_cycle;Max_cycle;Signal;HPM_P1;HPM_P2
2023/07/27 00:02:43;;;;;;;;;;;;;;;;;;;;;
2023/07/27 00:16:20;;;;;;;;;;;;;;;;;;;;;
2023/07/27 00:22:57;;;;;;;;;;;;;;;;;;;;;
2023/07/27 00:29:49;;;;;;;;;;;;;;;;;;;;;
2023/07/27 00:36:34;;;;;;;9.00;5.00;;;;;;;10.43;89.02;98412.52;226709;1265;25274;-70
2023/07/27 00:50:00;;;;;;;7.90;5.10;;;;;;;10.37;88.94;98430.55;226940;1275;24388;-71
2023/07/27 00:56:25;;;;;;;6.70;4.90;;;;;;;10.33;88.99;98432.35;226887;1275;22545;-71
2023/07/27 01:02:55;;;;;;;6.80;4.60;;;;;;;10.29;88.75;98433.09;226972;1275;24212;-71
2023/07/27 01:09:42;;;;;;;8.40;5.00;;;;;;;10.24;88.79;98438.75;226918;1275;22538;-71
2023/07/27 01:16:00;;;;;;;4.50;4.10;;;;;;;10.19;88.72;98447.95;226914;1267;22531;-71
2023/07/27 01:23:14;;;;;;;6.80;4.40;;;;;;;10.14;88.56;98445.60;226441;1275;22519;-71
2023/07/27 01:30:07;;;;;;;;;;;;;;;;;;;;;
2023/07/27 01:36:15;;;;;;;8.80;4.50;;;;;;;10.00;88.78;98431.83;226816;1275;22534;-71
2023/07/27 01:42:18;;;;;;;;;;;;;;;;;;;;;
2023/07/27 01:48:35;;;;;;;;;;;;;;;;;;;;;
2023/07/27 02:01:01;;;;;;;;;;;;;;;;;;;;;
2023/07/27 02:07:28;;;;;;;10.50;4.90;;;;;;;9.82;88.79;98452.27;226798;1270;22545;-71
2023/07/27 02:14:03;;;;;;;8.30;5.20;;;;;;;9.81;88.68;98454.21;226927;1275;22537;-71
2023/07/27 02:20:17;;;;;;;8.60;4.90;;;;;;;9.80;88.73;98459.19;226494;1275;22572;-71
2023/07/27 02:39:51;;;;;;;;;;;;;;;;;;;;;
2023/07/27 02:53:18;;;;;;;;;;;;;;;;;;;;;
2023/07/27 02:59:34;;;;;;;;;;;;;;;;;;;;;
2023/07/27 03:06:16;;;;;;;6.80;3.80;;;;;;;9.46;88.22;98499.15;226997;1275;22546;-71
2023/07/27 03:26:26;;;;;;;4.90;4.00;;;;;;;9.19;88.62;98511.84;226826;1275;24311;-71
2023/07/27 03:32:41;;;;;;;7.20;4.40;;;;;;;9.11;88.18;98517.27;226581;1275;22561;-71
2023/07/27 03:45:26;;;;;;;4.80;4.30;;;;;;;9.43;88.74;98520.13;226854;1275;22533;-72
2023/07/27 03:52:08;;;;;;;7.00;4.40;;;;;;;9.79;88.67;98529.58;226983;1275;22530;-72
2023/07/27 03:58:52;;;;;;;;;;;;;;;;;;;;;
2023/07/27 04:04:56;;;;;;;6.00;3.70;;;;;;;10.17;88.54;98532.52;226838;1275;22542;-72
2023/07/27 04:11:00;;;;;;;6.10;3.60;;;;;;;10.29;88.33;98535.29;226882;1275;22546;-72
2023/07/27 04:17:04;;;;;;;5.90;3.70;;;;;;;10.36;88.43;98538.69;226820;1275;22595;-72
2023/07/27 04:23:27;;;;;;;4.50;3.70;;;;;;;10.43;88.15;98537.27;226904;1274;22537;-72
2023/07/27 04:29:52;;;;;;;6.70;3.70;;;;;;;10.54;88.36;98532.14;227004;1275;22547;-71
2023/07/27 04:35:55;;;;;;;4.30;3.50;;;;;;;10.65;88.26;98543.19;226969;1275;22531;-71
2023/07/27 04:42:22;;;;;;;5.30;3.80;;;;;;;10.80;88.31;98533.59;226869;1275;25293;-72
2023/07/27 04:54:28;;;;;;;;;;;;;;;;;;;;;
2023/07/27 05:00:15;;;;;;;6.50;3.70;;;;;;;11.22;87.74;98537.64;227021;1275;22531;-72
2023/07/27 05:06:42;;;;;;;;;;;;;;;;;;;;;
2023/07/27 05:12:39;;;;;;;4.00;3.10;;;;;;;11.52;87.68;98543.48;226934;1275;22557;-71
2023/07/27 05:18:20;;;;;;;4.80;3.30;;;;;;;11.69;87.91;98544.58;226811;1275;22529;-72
2023/07/27 05:24:15;;;;;;;13.00;7.20;;;;;;;11.91;87.96;98547.98;226904;1275;22544;-71
2023/07/27 05:29:47;;;;;;;6.10;3.10;;;;;;;12.14;87.59;98550.68;226930;1275;22527;-71
2023/07/27 05:41:39;;;;;;;6.10;2.70;;;;;;;12.57;87.29;98548.17;226868;1275;22534;-72
2023/07/27 05:47:28;;;;;;;3.80;2.70;;;;;;;12.82;86.93;98552.73;226708;1269;22545;-71
2023/07/27 05:53:15;;;;;;;4.60;2.90;;;;;;;13.02;86.21;98546.54;226458;1269;22551;-71
2023/07/27 05:59:16;;;;;;;4.30;2.60;;;;;;;13.23;85.86;98552.99;226413;1275;24254;-71
2023/07/27 06:04:55;;;;;;;4.50;2.30;;;;;;;13.47;85.79;98559.70;226406;1268;22539;-72
2023/07/27 06:11:09;;;;;;;3.30;2.20;;;;;;;13.72;85.19;98558.02;226136;1257;22574;-72
2023/07/27 06:24:36;;;;;;;;;;;;;;;;;;;;;
2023/07/27 06:30:18;;;;;;;6.50;3.60;;;;;;;14.46;83.94;98566.27;226157;1259;25398;-71
2023/07/27 06:36:40;;;;;;;5.00;2.30;;;;;;;14.69;83.49;98561.20;225991;1260;22534;-71
2023/07/27 06:43:16;;;;;;;2.60;2.00;;;;;;;14.93;82.78;98562.06;226348;1262;22536;-71
2023/07/27 06:49:10;;;;;;;3.90;2.00;;;;;;;15.10;81.91;98565.40;226186;1260;22540;-71
2023/07/27 06:55:34;;;;;;;;;;;;;;;;;;;;;
2023/07/27 07:00:56;;;;;;;;;;;;;;;;;;;;;
2023/07/27 07:06:21;;;;;;;2.70;2.00;;;;;;;15.63;80.49;98560.95;226098;1253;22533;-71
2023/07/27 07:12:39;;;;;;;2.90;1.70;;;;;;;15.91;80.35;98560.08;226302;1253;22538;-72
2023/07/27 07:18:08;;;;;;;;;;;;;;;;;;;;;
2023/07/27 07:23:28;;;;;;;3.00;1.90;;;;;;;16.36;79.01;98563.31;226597;1269;22587;-72
2023/07/27 07:29:26;;;;;;;1.60;1.40;;;;;;;16.55;78.28;98564.58;226267;1267;22530;-72
2023/07/27 07:35:04;;;;;;;1.60;1.20;;;;;;;16.77;77.52;98560.08;226364;1256;23035;-72
2023/07/27 07:40:28;;;;;;;1.40;1.10;;;;;;;16.91;76.54;98559.45;226346;1256;22575;-72
2023/07/27 07:45:59;;;;;;;3.50;1.30;;;;;;;17.03;75.60;98560.55;226377;1263;22548;-72
2023/07/27 07:51:32;;;;;;;2.60;1.40;;;;;;;17.20;75.45;98557.60;226112;1272;22582;-72
2023/07/27 07:57:03;;;;;;;2.20;1.40;;;;;;;17.39;74.49;98557.55;226128;1266;22567;-73
2023/07/27 08:02:56;;;;;;;2.30;1.40;;;;;;;17.58;73.81;98552.47;226133;1262;22542;-70
2023/07/27 08:08:02;;;;;;;1.40;1.10;;;;;;;17.72;72.93;98546.98;226259;1269;22626;-72
2023/07/27 08:14:08;;;;;;;1.80;1.40;;;;;;;17.90;73.38;98544.74;226001;1274;22565;-71
2023/07/27 08:25:57;;;;;;;1.60;1.20;;;;;;;18.43;72.16;98539.55;226135;1272;24242;-72
2023/07/27 08:31:09;;;;;;;1.70;1.60;;;;;;;18.59;71.25;98538.59;226070;1256;22536;-72
2023/07/27 08:36:42;;;;;;;1.60;1.50;;;;;;;18.76;70.43;98532.80;226062;1271;23440;-73
2023/07/27 08:41:43;;;;;;;2.60;1.30;;;;;;;18.86;69.66;98527.41;226119;1269;22526;-73
2023/07/27 08:47:48;;;;;;;2.70;1.50;;;;;;;18.97;68.88;98525.44;226433;1272;22525;-73
2023/07/27 08:53:43;;;;;;;1.80;1.70;;;;;;;19.08;68.68;98516.51;225688;1256;22672;-73
2023/07/27 08:59:19;;;;;;;5.40;1.90;;;;;;;19.33;68.70;98518.41;226085;1267;24200;-72
2023/07/27 09:04:36;;;;;;;1.80;1.70;;;;;;;19.52;67.55;98513.61;226204;1256;22558;-72
2023/07/27 09:10:14;;;;;;;10.60;2.20;;;;;;;19.71;67.79;98508.02;226047;1274;22541;-73
2023/07/27 09:15:32;;;;;;;6.70;2.30;;;;;;;20.10;67.19;98505.63;225757;1270;25345;-73
2023/07/27 09:20:55;;;;;;;4.00;1.70;;;;;;;20.41;67.10;98502.45;225895;1270;23190;-74
2023/07/27 09:27:00;;;;;;;2.20;1.70;;;;;;;20.80;66.14;98505.32;226066;1272;22731;-72
2023/07/27 09:32:20;;;;;;;;;;;;;;;;;;;;;
2023/07/27 09:38:06;;;;;;;3.30;1.80;;;;;;;21.10;64.13;98496.33;226387;1257;23017;-72
2023/07/27 09:43:44;;;;;;;3.00;1.80;;;;;;;21.37;63.55;98497.46;226412;1269;22559;-72
2023/07/27 09:49:14;;;;;;;4.80;1.80;;;;;;;21.63;62.27;98495.42;226261;1270;22553;-74
2023/07/27 09:54:41;;;;;;;4.30;1.80;;;;;;;21.96;62.61;98492.99;226397;1272;23179;-72
2023/07/27 10:00:16;;;;;;;4.90;1.90;;;;;;;22.45;61.70;98476.45;226312;1269;22531;-73
2023/07/27 10:05:45;;;;;;;5.30;2.10;;;;;;;22.76;61.02;98479.25;226156;1272;22558;-70
2023/07/27 10:11:10;;;;;;;2.50;1.90;;;;;;;22.84;59.88;98477.83;226316;1275;22533;-70
2023/07/27 10:16:22;;;;;;;1.90;1.70;;;;;;;22.81;58.76;98473.42;226367;1272;22602;-72
2023/07/27 10:22:28;;;;;;;1.90;1.80;;;;;;;22.98;58.80;98462.45;226385;1269;22555;-72
2023/07/27 10:28:36;;;;;;;1.90;1.80;;;;;;;23.11;58.44;98457.28;226545;1275;22553;-71
2023/07/27 10:34:17;;;;;;;3.30;1.70;;;;;;;23.06;57.88;98456.83;226261;1256;22553;-76
2023/07/27 10:39:59;;;;;;;2.80;2.00;;;;;;;23.18;57.49;98449.88;226260;1272;22587;-72
2023/07/27 10:45:35;;;;;;;2.90;1.80;;;;;;;23.25;56.84;98440.83;225947;1269;275191;-72
2023/07/27 10:50:59;;;;;;;2.10;2.00;;;;;;;23.08;56.58;98442.38;225718;1260;22634;-73
2023/07/27 10:56:32;;;;;;;1.80;1.70;;;;;;;22.81;56.00;98433.11;225689;1256;22514;-73
2023/07/27 11:01:47;;;;;;;2.80;1.80;;;;;;;23.08;57.01;98426.85;225988;1254;22541;-72
2023/07/27 11:07:49;;;;;;;1.70;1.60;;;;;;;23.33;55.84;98421.90;226055;1256;22548;-72
2023/07/27 11:13:25;;;;;;;;;;;;;;;;;;;;;
2023/07/27 11:18:45;;;;;;;3.30;1.90;;;;;;;22.75;55.14;98421.38;226040;1256;22602;-75
2023/07/27 11:24:19;;;;;;;2.10;1.90;;;;;;;22.47;55.95;98424.15;226077;1270;24606;-72
2023/07/27 11:35:44;;;;;;;2.90;2.00;;;;;;;21.67;58.91;98431.59;226446;1272;22931;-72
2023/07/27 11:41:09;;;;;;;3.00;1.90;;;;;;;21.46;59.92;98426.84;226136;1275;22553;-72
2023/07/27 11:47:01;;;;;;;2.30;2.00;;;;;;;21.41;60.14;98410.96;226359;1272;22537;-72
2023/07/27 11:52:14;;;;;;;1.80;1.60;;;;;;;21.46;60.34;98403.72;226548;1267;22547;-72
2023/07/27 11:57:27;;;;;;;5.00;1.90;;;;;;;21.63;59.75;98395.98;226283;1267;24199;-73
2023/07/27 12:02:53;;;;;;;2.00;1.90;;;;;;;21.94;59.13;98391.13;226260;1269;22537;-73
2023/07/27 12:08:20;;;;;;;1.70;1.60;;;;;;;21.89;58.62;98381.77;226405;1256;25443;-72
2023/07/27 12:13:49;;;;;;;2.50;2.00;;;;;;;22.16;58.88;98369.58;226111;1275;22550;-72
2023/07/27 12:19:01;;;;;;;2.70;2.20;;;;;;;22.39;57.74;98375.45;226454;1257;22557;-72
2023/07/27 12:24:11;;;;;;;2.80;1.80;;;;;;;22.69;57.22;98365.10;226426;1261;25244;-72
2023/07/27 12:29:43;;;;;;;2.30;1.80;;;;;;;23.28;56.97;98357.65;226496;1253;22581;-72
2023/07/27 12:34:48;;;;;;;1.70;1.60;;;;;;;23.68;55.57;98344.91;226228;1272;22591;-72
2023/07/27 12:39:55;;;;;;;3.90;1.90;;;;;;;23.75;54.27;98342.91;226154;1270;22575;-73
2023/07/27 12:45:11;;;;;;;1.80;1.70;;;;;;;23.82;53.00;98336.30;226053;1274;23854;-72
2023/07/27 12:50:13;;;;;;;3.10;1.70;;;;;;;23.84;52.08;98334.51;226090;1257;22599;-72
2023/07/27 12:55:35;;;;;;;1.60;1.50;;;;;;;23.70;52.33;98325.85;226201;1256;25587;-72
2023/07/27 13:01:07;;;;;;;;;;;;;;;23.49;51.74;98321.64;226349;1272;22530;-71
2023/07/27 13:06:09;;;;;;;3.30;3.00;;;;;;;23.32;51.51;98313.85;226405;1257;25324;-71
2023/07/27 13:11:34;;;;;;;1.80;1.60;;;;;;;23.17;52.04;98310.25;226184;1272;22518;-73
2023/07/27 13:16:44;;;;;;;1.70;1.40;;;;;;;22.97;52.10;98310.88;226150;1269;22588;-72
2023/07/27 13:22:02;;;;;;;1.90;1.70;;;;;;;22.90;51.82;98303.00;225981;1254;22560;-73
2023/07/27 13:27:08;;;;;;;1.60;1.50;;;;;;;22.74;50.68;98310.13;226322;1266;22702;-73
2023/07/27 13:39:18;;;;;;;1.70;1.60;;;;;;;22.63;51.59;98298.66;226386;1270;22619;-72
2023/07/27 13:44:54;;;;;;;1.70;1.50;;;;;;;22.77;51.25;98297.56;226304;1272;22682;-72
2023/07/27 13:55:32;;;;;;;1.90;1.60;;;;;;;22.62;51.23;98291.88;226188;1270;22601;-72
2023/07/27 14:00:54;;;;;;;1.70;1.60;;;;;;;22.84;50.61;98289.50;226193;1268;22676;-72
2023/07/27 14:06:03;;;;;;;2.40;1.80;;;;;;;22.96;50.64;98286.57;226004;1276;22546;-72
2023/07/27 14:11:13;;;;;;;1.90;1.70;;;;;;;23.02;51.05;98279.19;226435;1273;22648;-72
2023/07/27 14:16:29;;;;;;;1.90;1.70;;;;;;;23.11;51.34;98273.85;226079;1276;23323;-72
2023/07/27 14:22:23;;;;;;;2.00;1.80;;;;;;;23.05;50.59;98270.77;226254;1276;22554;-72
2023/07/27 14:27:46;;;;;;;;;;;;;;;;;;;;;
2023/07/27 14:33:31;;;;;;;2.20;2.00;;;;;;;23.56;49.92;98265.11;226647;1273;22545;-71
2023/07/27 14:39:26;;;;;;;2.20;2.00;;;;;;;23.81;48.95;98261.96;226649;1276;22636;-71
2023/07/27 14:45:15;;;;;;;;;;;;;;;;;;;;;
2023/07/27 14:50:53;;;;;;;2.10;2.00;;;;;;;24.14;48.29;98248.52;226750;1276;22761;-72
2023/07/27 14:56:23;;;;;;;2.80;2.00;;;;;;;24.21;47.88;98246.67;226569;1270;22495;-72
2023/07/27 15:02:06;;;;;;;;;;;;;;;;;;;;;
2023/07/27 15:07:51;;;;;;;2.30;2.10;;;;;;;24.08;47.49;98237.50;226711;1270;25344;-71
2023/07/27 15:13:02;;;;;;;2.10;2.00;;;;;;;24.14;47.90;98229.61;226581;1274;22535;-71
2023/07/27 15:18:27;;;;;;;2.30;2.10;;;;;;;24.35;47.84;98230.65;226683;1274;24216;-70
2023/07/27 15:24:01;;;;;;;2.00;1.90;;;;;;;24.38;47.55;98225.44;226774;1273;22537;-71
2023/07/27 15:29:19;;;;;;;2.70;2.00;;;;;;;24.15;47.23;98223.23;226597;1276;22558;-71
2023/07/27 15:35:19;;;;;;;2.70;2.10;;;;;;;24.07;47.75;98217.21;226687;1276;22567;-71
2023/07/27 15:40:26;;;;;;;4.70;2.30;;;;;;;24.07;47.95;98212.30;226801;1276;24222;-71
2023/07/27 15:45:49;;;;;;;2.40;1.90;;;;;;;23.88;47.83;98216.00;226813;1276;22543;-71
2023/07/27 15:51:24;;;;;;;2.20;2.00;;;;;;;23.75;48.24;98216.58;226710;1276;24375;-71
2023/07/27 15:57:17;;;;;;;2.10;2.00;;;;;;;23.68;48.16;98208.52;226654;1276;22540;-71
2023/07/27 16:02:22;;;;;;;2.00;1.90;;;;;;;23.63;47.70;98200.30;226764;1276;22535;-71
2023/07/27 16:08:02;;;;;;;2.30;1.80;;;;;;;23.66;47.88;98194.50;226619;1276;23899;-71
2023/07/27 16:13:13;;;;;;;2.10;1.90;;;;;;;23.79;47.97;98185.45;226824;1276;22546;-72
2023/07/27 16:18:25;;;;;;;2.20;1.80;;;;;;;23.84;48.15;98181.30;226799;1272;23020;-73
2023/07/27 16:23:46;;;;;;;2.10;2.00;;;;;;;23.82;47.77;98180.94;226781;1276;22541;-72
2023/07/27 16:28:59;;;;;;;2.50;1.90;;;;;;;23.73;48.25;98172.36;226763;1276;22564;-72
2023/07/27 16:34:02;;;;;;;2.50;2.00;;;;;;;23.63;48.55;98176.85;226787;1270;22589;-71
2023/07/27 16:39:04;;;;;;;2.60;1.90;;;;;;;23.46;48.40;98182.84;226641;1273;22576;-71
2023/07/27 16:44:06;;;;;;;2.00;1.90;;;;;;;23.29;48.51;98180.52;226575;1273;22563;-71
2023/07/27 16:49:09;;;;;;;2.30;1.70;;;;;;;23.18;49.00;98184.23;226637;1273;22542;-71
2023/07/27 16:54:46;;;;;;;3.50;2.00;;;;;;;23.11;49.20;98185.23;226801;1276;22612;-71
2023/07/27 16:59:56;;;;;;;2.30;1.90;;;;;;;22.99;49.10;98181.19;226674;1276;22545;-71
2023/07/27 17:05:09;;;;;;;4.90;2.10;;;;;;;22.84;49.29;98183.20;226563;1276;22536;-71
2023/07/27 17:10:32;;;;;;;2.70;1.90;;;;;;;22.66;49.58;98176.20;226683;1276;24239;-71
2023/07/27 17:15:52;;;;;;;2.20;2.00;;;;;;;22.40;49.95;98181.49;226644;1275;24880;-71
2023/07/27 17:21:20;;;;;;;2.00;1.80;;;;;;;22.14;50.63;98172.87;226829;1276;25334;-71
2023/07/27 17:26:25;;;;;;;2.60;1.90;;;;;;;22.00;51.13;98175.95;226762;1274;22537;-71
2023/07/27 17:31:32;;;;;;;2.10;1.90;;;;;;;21.90;51.47;98175.98;226750;1270;22552;-71
2023/07/27 17:36:57;;;;;;;3.80;2.10;;;;;;;21.74;51.79;98174.16;226356;1276;22557;-70
2023/07/27 17:42:14;;;;;;;2.40;2.00;;;;;;;21.58;52.21;98174.07;226661;1276;22541;-70
2023/07/27 17:47:32;;;;;;;3.70;1.90;;;;;;;21.42;52.39;98173.95;226667;1276;22541;-71
2023/07/27 17:52:53;;;;;;;3.80;2.00;;;;;;;21.24;52.60;98174.09;226833;1276;22544;-71
2023/07/27 17:58:16;;;;;;;3.70;2.40;;;;;;;21.11;53.22;98175.90;226684;1264;22656;-71
2023/07/27 18:03:18;;;;;;;3.10;2.20;;;;;;;21.00;53.36;98180.98;226727;1273;22542;-71
2023/07/27 18:09:05;;;;;;;2.60;2.00;;;;;;;20.88;53.78;98182.91;226791;1272;22534;-70
2023/07/27 18:14:27;;;;;;;3.30;2.00;;;;;;;20.70;54.04;98180.60;226703;1273;22518;-71
2023/07/27 18:19:34;;;;;;;3.10;1.80;;;;;;;20.52;54.43;98184.13;226738;1274;22700;-71
2023/07/27 18:25:09;;;;;;;2.30;2.10;;;;;;;20.32;54.80;98176.67;226814;1272;22749;-71
2023/07/27 18:31:30;;;;;;;;;;;;;;;;;;;;;
2023/07/27 18:37:17;;;;;;;;;;;;;;;;;;;;;
2023/07/27 18:42:50;;;;;;;4.00;2.00;;;;;;;19.68;55.96;98164.34;226771;1276;25239;-71
2023/07/27 18:48:55;;;;;;;4.40;2.00;;;;;;;19.51;56.22;98166.18;226683;1276;23182;-71
2023/07/27 18:55:12;;;;;;;4.20;2.30;;;;;;;19.34;56.59;98172.50;226750;1273;22551;-70
2023/07/27 19:00:39;;;;;;;2.10;1.70;;;;;;;19.24;56.94;98179.73;226641;1276;22552;-70
2023/07/27 19:06:05;;;;;;;2.80;2.00;;;;;;;19.18;57.14;98181.07;226705;1270;22530;-72
2023/07/27 19:11:31;;;;;;;3.30;1.90;;;;;;;19.11;57.45;98183.34;226022;1280;22566;-73
2023/07/27 19:16:50;;;;;;;4.00;2.30;;;;;;;19.06;57.56;98176.60;225889;1280;22591;-72
2023/07/27 19:22:00;;;;;;;5.40;2.60;;;;;;;19.02;57.83;98170.36;225863;1280;22576;-71
2023/07/27 19:27:34;;;;;;;4.30;2.10;;;;;;;18.97;57.96;98169.86;225871;1278;22552;-71
2023/07/27 19:32:47;;;;;;;3.70;2.50;;;;;;;18.93;58.03;98168.60;225950;1276;22559;-71
2023/07/27 19:38:34;;;;;;;;;;;;;;;;;;;;;
2023/07/27 19:44:44;;;;;;;3.40;2.40;;;;;;;18.82;58.02;98166.91;226776;1276;24222;-72
2023/07/27 19:50:13;;;;;;;4.00;2.60;;;;;;;18.75;58.08;98160.46;226669;1276;23057;-71
2023/07/27 19:56:20;;;;;;;3.00;2.80;;;;;;;18.67;58.22;98157.96;226806;1275;22533;-71
2023/07/27 20:02:18;;;;;;;5.90;3.30;;;;;;;18.61;58.41;98152.10;226620;1276;22546;-71
2023/07/27 20:07:41;;;;;;;4.00;3.00;;;;;;;18.55;58.53;98150.05;226766;1261;22539;-70
2023/07/27 20:12:53;;;;;;;4.80;3.10;;;;;;;18.50;58.55;98150.83;226688;1276;22533;-70
2023/07/27 20:17:56;;;;;;;3.00;2.60;;;;;;;18.45;58.66;98147.88;226704;1272;22548;-71
2023/07/27 20:23:10;;;;;;;4.70;2.70;;;;;;;18.42;58.79;98147.63;226600;1275;22537;-70
2023/07/27 20:28:54;;;;;;;;;;;;;;;;;;;;;
2023/07/27 20:34:22;;;;;;;3.40;2.60;;;;;;;18.37;58.90;98130.75;226630;1276;22598;-70
2023/07/27 20:39:32;;;;;;;4.00;2.50;;;;;;;18.34;58.89;98116.27;226728;1273;22537;-70
2023/07/27 20:44:53;;;;;;;2.80;2.40;;;;;;;18.32;58.90;98121.60;226682;1273;22559;-71
2023/07/27 20:49:56;;;;;;;4.60;2.80;;;;;;;18.30;58.87;98122.98;226712;1273;22523;-76
2023/07/27 20:55:01;;;;;;;3.30;2.20;;;;;;;18.27;58.90;98110.54;226441;1276;22536;-75
2023/07/27 21:06:29;;;;;;;3.10;2.40;;;;;;;18.22;59.13;98097.56;226691;1275;22529;-76
2023/07/27 21:12:23;;;;;;;3.10;2.30;;;;;;;18.18;59.10;98092.87;226631;1276;22561;-76
2023/07/27 21:18:03;;;;;;;3.10;2.10;;;;;;;18.15;59.28;98087.91;226671;1275;24262;-75
2023/07/27 21:23:50;;;;;;;;;;;;;;;;;;;;;
2023/07/27 21:29:43;;;;;;;2.10;1.90;;;;;;;18.10;59.40;98086.52;226692;1276;22700;-75
2023/07/27 21:34:59;;;;;;;2.90;2.60;;;;;;;18.08;59.51;98083.58;226701;1273;22533;-76
2023/07/27 21:41:00;;;;;;;2.60;2.10;;;;;;;18.05;59.56;98077.29;226649;1276;22533;-76
2023/07/27 21:46:24;;;;;;;;;;;;;;;;;;;;;
2023/07/27 21:51:30;;;;;;;4.00;2.90;;;;;;;18.01;59.40;98080.56;226744;1272;22533;-76
2023/07/27 21:57:18;;;;;;;;;;;;;;;;;;;;;
2023/07/27 22:03:16;;;;;;;;;;;;;;;;;;;;;
2023/07/27 22:09:04;;;;;;;2.60;2.00;;;;;;;17.94;59.38;98082.92;226651;1276;22538;-74
2023/07/27 22:14:37;;;;;;;;;;;;;;;;;;;;;
2023/07/27 22:20:12;;;;;;;2.40;2.20;;;;;;;17.89;59.78;98065.32;226629;1269;22545;-75
2023/07/27 22:25:45;;;;;;;5.10;2.40;;;;;;;17.85;59.94;98066.19;226588;1276;22546;-76
2023/07/27 22:30:58;;;;;;;2.40;2.10;;;;;;;17.82;59.79;98065.30;226737;1272;22559;-76
2023/07/27 22:36:24;;;;;;;2.70;2.20;;;;;;;17.80;59.86;98064.64;226671;1276;24241;-76
2023/07/27 22:41:50;;;;;;;3.40;2.60;;;;;;;17.77;59.95;98059.43;226581;1276;22547;-76
2023/07/27 22:47:07;;;;;;;2.20;2.00;;;;;;;17.74;60.29;98061.65;224206;1269;3257522;-75
2023/07/27 22:52:18;;;;;;;4.10;1.90;;;;;;;17.72;60.16;98059.70;226638;1270;22537;-76
2023/07/27 22:57:43;;;;;;;2.90;2.30;;;;;;;17.72;60.21;98064.08;226739;1269;25942;-74
2023/07/27 23:03:33;;;;;;;2.60;2.10;;;;;;;17.71;60.37;98063.80;226584;1276;22542;-75
2023/07/27 23:09:49;;;;;;;;;;;;;;;;;;;;;
2023/07/27 23:15:55;;;;;;;2.50;2.10;;;;;;;17.74;60.40;98047.92;226572;1276;22584;-74
2023/07/27 23:21:33;;;;;;;3.10;2.00;;;;;;;17.76;60.37;98038.70;226664;1274;22541;-74
2023/07/27 23:27:06;;;;;;;1.70;1.60;;;;;;;17.81;60.41;98045.42;226712;1276;22534;-75
2023/07/27 23:33:32;;;;;;;2.80;1.60;;;;;;;17.90;60.33;98042.35;226689;1275;22533;-75
2023/07/27 23:39:58;;;;;;;2.80;1.90;;;;;;;17.98;60.55;98036.54;226510;1276;22525;-75
2023/07/27 23:45:32;;;;;;;3.40;1.70;;;;;;;18.03;60.52;98030.27;226673;1268;24235;-75
2023/07/27 23:51:33;;;;;;;5.30;1.90;;;;;;;18.05;60.49;98027.78;226431;1276;24292;-75
